Weather at Put In Bay Airport

Public forecast

Using degrees Fahrenheit for public forecast. Weather courtesy of forecast.io.

Closest aviation weather report (METAR) to Put In Bay Airport

Closest report is Carl R Keller Field, 7.5 nm (13.8 km) SSW. Retrieved 2020/10/30 16:35 UTC (0 seconds ago):

KPCW 301635Z AUTO 34010G16KT 10SM FEW022 SCT032 BKN041 06/01 A3020 RMK AO2

Closest aviation forecast (TAF) to Put In Bay Airport

Closest forecast is Windsor Airport, 38.8 nm (71.8 km) N. Retrieved 2020/10/30 12:42 UTC (4 hours ago):

TAF CYQG 301138Z 3012/3112 34010G20KT P6SM FEW015 BKN060 TEMPO 3012/3014 BKN015 FM301400 32012KT P6SM FEW025 TEMPO 3014/3015 BKN020 BECMG 3100/3102 VRB03KT RMK FCST BASED ON AUTO OBS NXT FCST BY 301800Z